createdAt,value
2019-04-01T00:00:50.038Z,86.30
2019-04-01T00:03:17.290Z,86.40
2019-04-01T00:05:44.605Z,86.70
2019-04-01T00:08:11.599Z,86.70
2019-04-01T00:10:38.971Z,86.90
2019-04-01T00:13:08.471Z,87.20
2019-04-01T00:15:35.725Z,87.30
2019-04-01T00:18:02.997Z,87.60
2019-04-01T00:20:30.006Z,87.50
2019-04-01T00:22:57.018Z,87.70
2019-04-01T00:25:24.356Z,87.80
2019-04-01T00:27:51.318Z,87.80
2019-04-01T00:30:18.259Z,87.70
2019-04-01T00:32:45.454Z,87.90
2019-04-01T00:35:12.825Z,87.90
2019-04-01T00:37:39.979Z,88.20
2019-04-01T00:40:07.111Z,88.20
2019-04-01T00:42:39.157Z,88.30
2019-04-01T00:45:13.118Z,88.50
2019-04-01T00:47:40.385Z,88.40
2019-04-01T00:50:08.083Z,88.60
2019-04-01T00:52:35.107Z,88.80
2019-04-01T00:55:02.908Z,89.00
2019-04-01T00:57:30.534Z,89.00
2019-04-01T00:59:57.816Z,89.30
2019-04-01T01:02:25.037Z,89.20
2019-04-01T01:04:52.180Z,89.40
2019-04-01T01:07:19.574Z,89.40
2019-04-01T01:09:46.917Z,89.30
2019-04-01T01:12:15.124Z,89.60
2019-04-01T01:14:42.281Z,89.60
2019-04-01T01:17:09.776Z,89.80
2019-04-01T01:19:37.172Z,90.00
2019-04-01T01:22:04.315Z,89.90
2019-04-01T01:24:32.548Z,90.10
2019-04-01T01:26:59.887Z,90.20
2019-04-01T01:29:27.542Z,90.30
2019-04-01T01:31:54.411Z,90.30
2019-04-01T01:34:21.705Z,90.50
2019-04-01T01:36:49.104Z,90.50
2019-04-01T01:39:16.406Z,90.50
2019-04-01T01:41:43.524Z,90.40
2019-04-01T01:44:10.787Z,90.40
2019-04-01T01:46:38.076Z,90.60
2019-04-01T01:49:05.115Z,90.50
2019-04-01T01:51:32.277Z,90.40
2019-04-01T01:53:59.989Z,90.60
2019-04-01T01:56:30.244Z,90.70
2019-04-01T01:58:57.467Z,90.70
2019-04-01T02:01:24.572Z,90.80
2019-04-01T02:03:51.582Z,90.80
2019-04-01T02:06:18.803Z,90.80
2019-04-01T02:08:46.146Z,91.00
2019-04-01T02:11:13.287Z,91.00
2019-04-01T02:13:40.170Z,91.00
2019-04-01T02:16:07.143Z,91.20
2019-04-01T02:18:34.538Z,91.10
2019-04-01T02:21:02.096Z,91.10
2019-04-01T02:23:29.343Z,90.90
2019-04-01T02:25:56.183Z,90.90
2019-04-01T02:28:23.191Z,90.80
2019-04-01T02:30:50.511Z,90.60
2019-04-01T02:33:17.899Z,90.70
2019-04-01T02:35:45.591Z,90.70
2019-04-01T02:38:12.793Z,90.70
2019-04-01T02:40:40.102Z,90.70
2019-04-01T02:43:07.665Z,90.60
2019-04-01T02:45:34.977Z,90.60
2019-04-01T02:48:02.156Z,90.50
2019-04-01T02:50:29.334Z,90.50
2019-04-01T02:52:56.245Z,90.40
2019-04-01T02:55:23.401Z,90.40
2019-04-01T02:57:50.625Z,90.30
2019-04-01T03:00:17.711Z,90.40
2019-04-01T03:02:44.612Z,90.30
2019-04-01T03:05:11.760Z,90.30
2019-04-01T03:07:38.993Z,90.10
2019-04-01T03:10:06.439Z,90.20
2019-04-01T03:12:33.645Z,90.10
2019-04-01T03:15:00.694Z,90.10
2019-04-01T03:17:27.842Z,90.20
2019-04-01T03:19:55.313Z,90.20
2019-04-01T03:22:22.472Z,90.40
2019-04-01T03:24:49.831Z,90.20
2019-04-01T03:27:17.474Z,90.40
2019-04-01T03:29:45.465Z,90.40
2019-04-01T03:32:12.344Z,90.20
2019-04-01T03:34:39.351Z,90.40
2019-04-01T03:37:06.331Z,90.30
2019-04-01T03:39:33.764Z,90.30
2019-04-01T03:42:01.169Z,90.40
2019-04-01T03:44:28.767Z,90.50
2019-04-01T03:46:55.825Z,90.30
2019-04-01T03:49:23.110Z,90.50
2019-04-01T03:51:49.979Z,90.40
2019-04-01T03:54:17.149Z,90.40
2019-04-01T03:56:44.584Z,90.40
2019-04-01T03:59:12.051Z,90.40
2019-04-01T04:01:39.126Z,90.10
2019-04-01T04:04:06.159Z,90.20
2019-04-01T04:06:33.216Z,90.20
2019-04-01T04:09:02.128Z,90.20
2019-04-01T04:11:31.083Z,90.20
2019-04-01T04:13:58.533Z,90.10
2019-04-01T04:16:25.790Z,90.00
2019-04-01T04:18:53.000Z,89.80
2019-04-01T04:21:23.761Z,89.80
2019-04-01T04:23:49.329Z,89.80
2019-04-01T04:26:16.424Z,89.60
2019-04-01T04:28:43.587Z,89.60
2019-04-01T04:31:10.817Z,89.50
2019-04-01T04:33:37.935Z,89.50
2019-04-01T04:36:05.767Z,89.50
2019-04-01T04:38:32.806Z,89.60
2019-04-01T04:41:00.365Z,89.70
2019-04-01T04:43:27.691Z,89.60
2019-04-01T04:45:54.793Z,89.80
2019-04-01T04:48:22.295Z,89.80
2019-04-01T04:50:49.408Z,89.80
2019-04-01T04:53:16.832Z,89.80
2019-04-01T04:55:44.251Z,89.60
2019-04-01T04:58:11.942Z,89.80
2019-04-01T05:00:39.384Z,89.60
2019-04-01T05:03:06.495Z,89.50
2019-04-01T05:05:33.665Z,89.50
2019-04-01T05:08:00.693Z,89.40
2019-04-01T05:10:28.086Z,89.50
2019-04-01T05:12:54.958Z,89.50
2019-04-01T05:15:22.649Z,89.50
2019-04-01T05:17:50.287Z,89.50
2019-04-01T05:20:17.447Z,89.40
2019-04-01T05:22:45.000Z,89.40
2019-04-01T05:25:12.287Z,89.30
2019-04-01T05:27:41.257Z,89.20
2019-04-01T05:30:09.707Z,89.10
2019-04-01T05:32:38.523Z,88.90
2019-04-01T05:35:06.430Z,88.80
2019-04-01T05:37:34.567Z,88.60
2019-04-01T05:40:02.613Z,88.50
2019-04-01T05:42:33.361Z,88.20
2019-04-01T05:45:00.424Z,88.10
2019-04-01T05:47:33.073Z,87.80
2019-04-01T05:50:00.784Z,87.70
2019-04-01T05:52:28.046Z,87.40
2019-04-01T05:54:55.687Z,87.30
2019-04-01T05:57:23.282Z,86.90
2019-04-01T05:59:53.849Z,86.80
2019-04-01T06:02:20.955Z,86.30
2019-04-01T06:04:48.470Z,85.90
2019-04-01T06:07:15.810Z,85.50
2019-04-01T06:09:42.911Z,85.00
2019-04-01T06:12:10.112Z,84.70
2019-04-01T06:14:37.440Z,84.50
2019-04-01T06:17:04.579Z,84.20
2019-04-01T06:19:31.903Z,83.90
2019-04-01T06:21:59.019Z,83.10
2019-04-01T06:24:26.050Z,83.10
2019-04-01T06:26:53.393Z,82.60
2019-04-01T06:29:21.339Z,82.20
2019-04-01T06:31:48.829Z,81.50
2019-04-01T06:34:16.363Z,81.10
2019-04-01T06:36:43.305Z,80.60
2019-04-01T06:39:10.503Z,80.20
2019-04-01T06:41:37.897Z,79.50
2019-04-01T06:44:05.329Z,79.10
2019-04-01T06:46:32.539Z,78.90
2019-04-01T06:49:00.029Z,78.50
2019-04-01T06:51:27.240Z,77.80
2019-04-01T06:53:54.234Z,77.60
2019-04-01T06:56:21.474Z,77.30
2019-04-01T06:58:48.501Z,76.50
2019-04-01T07:01:15.935Z,76.30
2019-04-01T07:03:43.335Z,75.60
2019-04-01T07:06:10.612Z,75.10
2019-04-01T07:08:37.692Z,74.90
2019-04-01T07:11:05.459Z,73.80
2019-04-01T07:13:32.659Z,73.40
2019-04-01T07:16:14.379Z,73.30
2019-04-01T07:18:29.606Z,72.50
2019-04-01T07:20:56.856Z,71.50
2019-04-01T07:23:24.478Z,70.70
2019-04-01T07:25:52.131Z,70.50
2019-04-01T07:28:19.106Z,69.80
2019-04-01T07:30:46.055Z,69.70
2019-04-01T07:33:13.636Z,69.10
2019-04-01T07:35:40.604Z,68.10
2019-04-01T07:38:08.467Z,67.80
2019-04-01T07:40:35.802Z,67.70
2019-04-01T07:43:03.289Z,66.70
2019-04-01T07:45:30.631Z,64.90
2019-04-01T07:47:58.334Z,64.40
2019-04-01T07:50:25.357Z,62.70
2019-04-01T07:52:55.452Z,63.30
2019-04-01T07:55:21.948Z,62.30
2019-04-01T07:57:49.373Z,61.50
2019-04-01T08:00:17.779Z,60.70
2019-04-01T08:02:45.117Z,59.90
2019-04-01T08:05:12.440Z,59.30
2019-04-01T08:07:39.958Z,57.80
2019-04-01T08:10:07.638Z,58.10
2019-04-01T08:12:35.109Z,58.10
2019-04-01T08:15:02.251Z,57.30
2019-04-01T08:17:31.560Z,56.20
2019-04-01T08:19:59.650Z,56.50
2019-04-01T08:22:27.180Z,55.10
2019-04-01T08:24:54.476Z,53.70
2019-04-01T08:27:21.909Z,53.00
2019-04-01T08:29:49.578Z,52.90
2019-04-01T08:32:16.876Z,51.40
2019-04-01T08:34:44.377Z,51.40
2019-04-01T08:37:11.463Z,52.40
2019-04-01T08:39:38.651Z,53.10
2019-04-01T08:42:06.114Z,50.60
2019-04-01T08:44:33.205Z,51.70
2019-04-01T08:47:00.707Z,51.60
2019-04-01T08:49:27.651Z,51.00
2019-04-01T08:51:55.595Z,51.60
2019-04-01T08:54:24.086Z,49.80
2019-04-01T08:56:51.440Z,48.10
2019-04-01T08:59:18.896Z,48.90
2019-04-01T09:01:46.532Z,49.30
2019-04-01T09:04:14.234Z,48.50
2019-04-01T09:06:41.444Z,48.20
2019-04-01T09:09:08.874Z,48.30
2019-04-01T09:11:38.437Z,47.10
2019-04-01T09:14:04.963Z,46.80
2019-04-01T09:16:33.719Z,44.70
2019-04-01T09:19:01.712Z,44.30
2019-04-01T09:21:28.762Z,43.30
2019-04-01T09:23:55.629Z,42.40
2019-04-01T09:26:22.679Z,42.80
2019-04-01T09:28:50.003Z,43.90
2019-04-01T09:31:17.421Z,42.00
2019-04-01T09:33:44.384Z,42.20
2019-04-01T09:36:11.616Z,42.70
2019-04-01T09:38:38.771Z,42.50
2019-04-01T09:41:05.968Z,41.80
2019-04-01T09:43:33.049Z,40.20
2019-04-01T09:46:00.309Z,40.90
2019-04-01T09:48:27.874Z,41.50
2019-04-01T09:50:55.312Z,41.30
2019-04-01T09:53:22.555Z,40.20
2019-04-01T09:55:49.938Z,40.50
2019-04-01T09:58:17.348Z,40.70
2019-04-01T10:00:46.285Z,40.00
2019-04-01T10:03:13.494Z,40.60
2019-04-01T10:05:40.883Z,38.00
2019-04-01T10:08:08.329Z,38.90
2019-04-01T10:10:35.985Z,39.40
2019-04-01T10:13:04.273Z,39.90
2019-04-01T10:15:31.523Z,38.60
2019-04-01T10:17:58.422Z,37.90
2019-04-01T10:20:26.021Z,36.90
2019-04-01T10:22:53.122Z,37.00
2019-04-01T10:25:20.568Z,37.90
2019-04-01T10:27:47.676Z,36.40
2019-04-01T10:30:15.285Z,36.40
2019-04-01T10:32:42.383Z,35.40
2019-04-01T10:35:11.394Z,36.40
2019-04-01T10:37:38.603Z,35.50
2019-04-01T10:40:06.833Z,36.10
2019-04-01T10:42:34.665Z,34.70
2019-04-01T10:45:01.980Z,36.30
2019-04-01T10:47:29.755Z,36.10
2019-04-01T10:49:57.305Z,36.30
2019-04-01T10:52:24.517Z,35.70
2019-04-01T10:54:51.765Z,34.30
2019-04-01T10:57:18.786Z,36.20
2019-04-01T10:59:45.954Z,35.00
2019-04-01T11:02:13.282Z,34.20
2019-04-01T11:04:40.624Z,34.50
2019-04-01T11:07:11.148Z,33.30
2019-04-01T11:09:38.939Z,33.00
2019-04-01T11:12:06.227Z,33.20
2019-04-01T11:14:33.313Z,32.80
2019-04-01T11:17:04.067Z,34.20
2019-04-01T11:19:29.585Z,34.10
2019-04-01T11:21:56.688Z,33.50
2019-04-01T11:24:24.172Z,33.70
2019-04-01T11:26:59.033Z,33.70
2019-04-01T11:29:26.214Z,33.40
2019-04-01T11:31:53.371Z,34.90
2019-04-01T11:34:20.596Z,32.50
2019-04-01T11:36:48.344Z,33.10
2019-04-01T11:39:15.888Z,33.90
2019-04-01T11:41:42.962Z,33.00
2019-04-01T11:44:10.495Z,31.50
2019-04-01T11:46:37.615Z,31.40
2019-04-01T11:49:05.054Z,31.20
2019-04-01T11:51:35.936Z,31.10
2019-04-01T11:54:01.376Z,30.90
2019-04-01T11:56:28.528Z,30.60
2019-04-01T11:58:56.848Z,31.10
2019-04-01T12:01:24.341Z,30.20
2019-04-01T12:03:51.912Z,30.20
2019-04-01T12:06:19.311Z,30.10
2019-04-01T12:08:46.807Z,32.70
2019-04-01T12:11:14.100Z,34.20
2019-04-01T12:13:40.991Z,34.60
2019-04-01T12:16:08.317Z,34.30
2019-04-01T12:18:35.642Z,33.30
2019-04-01T12:21:02.876Z,33.70
2019-04-01T12:23:30.032Z,33.80
2019-04-01T12:25:57.299Z,34.90
2019-04-01T12:28:24.640Z,33.90
2019-04-01T12:30:52.158Z,32.10
2019-04-01T12:33:19.840Z,31.30
2019-04-01T12:35:46.801Z,33.20
2019-04-01T12:38:14.077Z,33.60
2019-04-01T12:40:41.204Z,35.20
2019-04-01T12:43:08.276Z,34.80
2019-04-01T12:45:35.753Z,36.20
2019-04-01T12:48:03.345Z,35.30
2019-04-01T12:50:30.972Z,34.00
2019-04-01T12:52:58.159Z,33.30
2019-04-01T12:55:25.827Z,31.60
2019-04-01T12:57:53.237Z,32.10
2019-04-01T13:00:20.229Z,33.40
2019-04-01T13:02:47.369Z,34.20
2019-04-01T13:05:14.711Z,32.60
2019-04-01T13:07:41.728Z,32.00
2019-04-01T13:10:08.969Z,30.00
2019-04-01T13:12:36.360Z,30.20
2019-04-01T13:15:04.046Z,29.90
2019-04-01T13:17:34.384Z,30.40
2019-04-01T13:20:01.922Z,31.20
2019-04-01T13:22:28.934Z,30.70
2019-04-01T13:24:55.952Z,30.80
2019-04-01T13:27:23.271Z,30.90
2019-04-01T13:29:50.553Z,31.40
2019-04-01T13:32:17.938Z,31.80
2019-04-01T13:34:45.435Z,30.90
2019-04-01T13:37:12.367Z,31.30
2019-04-01T13:39:40.572Z,31.70
2019-04-01T13:42:07.775Z,31.40
2019-04-01T13:44:37.682Z,32.10
2019-04-01T13:47:05.005Z,31.10
2019-04-01T13:49:32.596Z,30.90
2019-04-01T13:52:01.881Z,31.80
2019-04-01T13:54:28.812Z,31.20
2019-04-01T13:56:56.103Z,30.90
2019-04-01T13:59:23.615Z,32.40
2019-04-01T14:01:50.771Z,32.30
2019-04-01T14:04:17.780Z,31.90
2019-04-01T14:06:45.218Z,32.50
2019-04-01T14:09:12.636Z,33.30
2019-04-01T14:11:40.159Z,31.90
2019-04-01T14:14:07.298Z,31.40
2019-04-01T14:16:34.900Z,31.90
2019-04-01T14:19:02.249Z,32.20
2019-04-01T14:21:29.440Z,31.90
2019-04-01T14:23:56.886Z,32.00
2019-04-01T14:26:24.166Z,32.40
2019-04-01T14:28:51.121Z,32.00
2019-04-01T14:31:19.432Z,32.10
2019-04-01T14:33:46.729Z,33.40
2019-04-01T14:36:13.811Z,33.30
2019-04-01T14:38:41.291Z,33.10
2019-04-01T14:41:08.430Z,32.50
2019-04-01T14:43:36.146Z,33.30
2019-04-01T14:46:03.987Z,34.00
2019-04-01T14:48:31.368Z,34.60
2019-04-01T14:50:59.772Z,35.10
2019-04-01T14:53:26.805Z,34.90
2019-04-01T14:55:53.959Z,34.80
2019-04-01T14:58:21.287Z,34.10
2019-04-01T15:00:48.801Z,33.60
2019-04-01T15:03:16.172Z,34.30
2019-04-01T15:05:43.685Z,33.50
2019-04-01T15:08:11.035Z,34.90
2019-04-01T15:10:41.047Z,35.00
2019-04-01T15:13:08.778Z,34.70
2019-04-01T15:15:36.235Z,34.90
2019-04-01T15:18:03.493Z,35.10
2019-04-01T15:20:30.851Z,34.90
2019-04-01T15:22:58.051Z,34.10
2019-04-01T15:25:25.290Z,34.90
2019-04-01T15:27:52.754Z,35.20
2019-04-01T15:30:19.891Z,34.70
2019-04-01T15:32:47.294Z,35.10
2019-04-01T15:35:14.680Z,35.50
2019-04-01T15:37:41.856Z,36.10
2019-04-01T15:40:10.210Z,36.50
2019-04-01T15:42:37.190Z,35.70
2019-04-01T15:45:06.200Z,36.20
2019-04-01T15:47:33.694Z,36.50
2019-04-01T15:50:01.180Z,36.60
2019-04-01T15:52:28.253Z,37.20
2019-04-01T15:54:57.880Z,36.90
2019-04-01T15:57:25.043Z,37.00
2019-04-01T15:59:52.407Z,37.10
2019-04-01T16:02:19.638Z,37.30
2019-04-01T16:04:47.288Z,37.10
2019-04-01T16:07:14.807Z,37.00
2019-04-01T16:09:42.461Z,37.20
2019-04-01T16:12:09.584Z,37.10
2019-04-01T16:14:36.978Z,38.10
2019-04-01T16:17:05.406Z,39.80
2019-04-01T16:19:33.213Z,38.80
2019-04-01T16:22:00.461Z,40.10
2019-04-01T16:24:28.045Z,40.30
2019-04-01T16:26:59.340Z,40.50
2019-04-01T16:29:26.791Z,40.50
2019-04-01T16:31:55.537Z,40.40
2019-04-01T16:34:23.305Z,41.20
2019-04-01T16:36:50.148Z,42.40
2019-04-01T16:39:17.151Z,42.00
2019-04-01T16:41:44.401Z,42.60
2019-04-01T16:44:11.808Z,43.40
2019-04-01T16:46:39.183Z,43.70
2019-04-01T16:49:07.558Z,43.90
2019-04-01T16:51:34.985Z,43.40
2019-04-01T16:54:02.280Z,44.10
2019-04-01T16:56:29.637Z,45.00
2019-04-01T16:58:57.651Z,45.20
2019-04-01T17:01:24.992Z,45.90
2019-04-01T17:03:52.167Z,46.10
2019-04-01T17:06:19.547Z,46.10
2019-04-01T17:08:47.262Z,46.20
2019-04-01T17:11:14.516Z,46.10
2019-04-01T17:13:41.767Z,47.10
2019-04-01T17:16:11.222Z,47.40
2019-04-01T17:18:39.182Z,47.80
2019-04-01T17:21:06.436Z,48.20
2019-04-01T17:23:33.453Z,48.30
2019-04-01T17:26:01.108Z,48.70
2019-04-01T17:28:28.255Z,49.40
2019-04-01T17:30:55.313Z,49.80
2019-04-01T17:33:22.545Z,50.50
2019-04-01T17:35:49.803Z,50.70
2019-04-01T17:38:16.958Z,52.00
2019-04-01T17:40:44.463Z,53.40
2019-04-01T17:43:13.621Z,53.80
2019-04-01T17:45:41.334Z,54.30
2019-04-01T17:48:08.726Z,54.40
2019-04-01T17:50:36.497Z,55.00
2019-04-01T17:53:06.116Z,55.70
2019-04-01T17:55:34.391Z,56.10
2019-04-01T17:58:01.555Z,56.80
2019-04-01T18:00:29.539Z,57.30
2019-04-01T18:02:56.574Z,57.40
2019-04-01T18:05:24.026Z,57.60
2019-04-01T18:07:51.361Z,57.50
2019-04-01T18:10:22.180Z,57.60
2019-04-01T18:12:49.371Z,58.00
2019-04-01T18:15:16.733Z,58.20
2019-04-01T18:17:44.031Z,58.10
2019-04-01T18:20:11.458Z,59.00
2019-04-01T18:22:39.023Z,59.00
2019-04-01T18:25:06.403Z,59.30
2019-04-01T18:27:33.669Z,59.70
2019-04-01T18:30:00.871Z,60.20
2019-04-01T18:32:31.119Z,60.00
2019-04-01T18:34:58.719Z,60.50
2019-04-01T18:37:25.720Z,60.30
2019-04-01T18:39:52.897Z,60.50
2019-04-01T18:42:20.441Z,60.80
2019-04-01T18:44:47.878Z,60.80
2019-04-01T18:47:15.229Z,60.80
2019-04-01T18:49:42.863Z,60.70
2019-04-01T18:52:11.236Z,60.20
2019-04-01T18:54:39.048Z,60.20
2019-04-01T18:57:06.523Z,60.10
2019-04-01T18:59:33.400Z,59.90
2019-04-01T19:02:00.373Z,59.60
2019-04-01T19:04:27.939Z,59.60
2019-04-01T19:06:55.156Z,59.60
2019-04-01T19:09:22.982Z,59.90
2019-04-01T19:12:02.966Z,60.00
2019-04-01T19:14:18.727Z,60.20
2019-04-01T19:16:49.404Z,60.10
2019-04-01T19:19:16.909Z,60.30
2019-04-01T19:21:43.812Z,60.50
2019-04-01T19:24:10.966Z,60.70
2019-04-01T19:26:37.952Z,60.80
2019-04-01T19:29:05.344Z,60.70
2019-04-01T19:31:33.793Z,61.00
2019-04-01T19:34:01.410Z,61.30
2019-04-01T19:36:29.097Z,61.40
2019-04-01T19:38:57.769Z,61.60
2019-04-01T19:41:24.867Z,61.70
2019-04-01T19:43:51.986Z,62.00
2019-04-01T19:46:19.641Z,62.70
2019-04-01T19:48:47.005Z,63.40
2019-04-01T19:51:14.990Z,64.20
2019-04-01T19:53:42.139Z,64.60
2019-04-01T19:56:09.682Z,65.10
2019-04-01T19:58:36.952Z,65.30
2019-04-01T20:01:04.562Z,65.70
2019-04-01T20:03:31.687Z,66.20
2019-04-01T20:05:58.862Z,66.80
2019-04-01T20:08:26.326Z,67.10
2019-04-01T20:10:53.661Z,67.10
2019-04-01T20:13:20.840Z,67.00
2019-04-01T20:15:48.368Z,66.80
2019-04-01T20:18:15.838Z,67.30
2019-04-01T20:20:43.200Z,67.30
2019-04-01T20:23:10.335Z,67.30
2019-04-01T20:25:37.243Z,67.40
2019-04-01T20:28:05.147Z,67.30
2019-04-01T20:30:32.526Z,67.50
2019-04-01T20:32:59.662Z,67.90
2019-04-01T20:35:28.305Z,68.10
2019-04-01T20:37:56.137Z,68.00
2019-04-01T20:40:23.280Z,68.00
2019-04-01T20:42:52.640Z,67.90
2019-04-01T20:45:20.130Z,68.40
2019-04-01T20:47:50.277Z,68.50
2019-04-01T20:50:17.588Z,68.70
2019-04-01T20:52:45.587Z,69.00
2019-04-01T20:55:13.488Z,69.50
2019-04-01T20:57:41.436Z,69.70
2019-04-01T21:00:09.517Z,70.20
2019-04-01T21:02:37.226Z,70.40
2019-04-01T21:05:04.953Z,70.90
2019-04-01T21:07:32.098Z,71.20
2019-04-01T21:09:59.691Z,71.60
2019-04-01T21:12:27.060Z,71.80
2019-04-01T21:14:56.011Z,72.00
2019-04-01T21:17:26.904Z,72.10
2019-04-01T21:19:54.066Z,72.30
2019-04-01T21:22:21.551Z,72.40
2019-04-01T21:24:48.872Z,72.80
2019-04-01T21:27:16.328Z,72.80
2019-04-01T21:29:43.377Z,73.00
2019-04-01T21:32:11.591Z,73.10
2019-04-01T21:34:40.066Z,73.20
2019-04-01T21:37:07.435Z,73.10
2019-04-01T21:39:34.461Z,73.20
2019-04-01T21:42:01.695Z,73.30
2019-04-01T21:44:29.757Z,73.30
2019-04-01T21:46:57.407Z,73.60
2019-04-01T21:49:24.908Z,74.00
2019-04-01T21:51:52.020Z,73.80
2019-04-01T21:54:18.908Z,74.00
2019-04-01T21:56:46.158Z,73.90
2019-04-01T21:59:15.485Z,73.80
2019-04-01T22:01:42.805Z,73.70
2019-04-01T22:04:11.258Z,73.80
2019-04-01T22:06:38.489Z,74.20
2019-04-01T22:09:06.892Z,74.40
2019-04-01T22:11:34.675Z,74.40
2019-04-01T22:14:01.723Z,74.40
2019-04-01T22:16:29.334Z,74.40
2019-04-01T22:18:58.030Z,74.30
2019-04-01T22:21:25.160Z,74.40
2019-04-01T22:23:52.519Z,74.30
2019-04-01T22:26:19.995Z,74.20
2019-04-01T22:28:47.175Z,74.00
2019-04-01T22:31:15.107Z,74.00
2019-04-01T22:33:42.248Z,73.90
2019-04-01T22:36:11.235Z,74.10
2019-04-01T22:38:38.613Z,74.30
2019-04-01T22:41:05.858Z,74.50
2019-04-01T22:43:32.774Z,74.60
2019-04-01T22:46:00.386Z,74.50
2019-04-01T22:48:27.441Z,74.70
2019-04-01T22:50:57.541Z,74.80
2019-04-01T22:53:24.324Z,74.90
2019-04-01T22:55:54.480Z,75.10
2019-04-01T22:58:22.198Z,75.10
2019-04-01T23:00:49.888Z,75.10
2019-04-01T23:03:17.611Z,75.30
2019-04-01T23:05:44.933Z,75.60
2019-04-01T23:08:12.019Z,75.60
2019-04-01T23:10:39.599Z,75.70
2019-04-01T23:13:06.570Z,75.80
2019-04-01T23:15:34.138Z,75.70
2019-04-01T23:18:01.846Z,75.80
2019-04-01T23:20:29.688Z,75.80
2019-04-01T23:22:57.772Z,75.70
2019-04-01T23:25:25.257Z,75.80
2019-04-01T23:27:55.296Z,75.90
2019-04-01T23:30:22.502Z,75.90
2019-04-01T23:32:49.719Z,76.00
2019-04-01T23:35:17.036Z,76.20
2019-04-01T23:37:44.077Z,76.40
2019-04-01T23:40:11.868Z,76.40
2019-04-01T23:42:39.300Z,76.30
2019-04-01T23:45:07.438Z,76.50
2019-04-01T23:47:34.490Z,76.70
2019-04-01T23:50:02.102Z,76.70
2019-04-01T23:52:29.212Z,76.70
2019-04-01T23:55:00.168Z,76.80
2019-04-01T23:57:27.471Z,76.90
2019-04-01T23:59:54.854Z,76.60
